Aérodrome :
LOGIN :

S'inscrire | Disclaimer

   EN    FR    IT 

 










Légende :    VFR   VFR Marginal   IFR   IFR Intensif   IFR Très Intensif
Visi : 
Plafond : 
>= 8 km
>= 3000ft
5 à 8 km
1000 à 3000 ft
1500m à 5 km
500 à 1000 ft
800 à 1500m
200 à 500 ft
< 800m
< 200 ft
Symboles :   Orages  Brouillard  Fortes neiges  Fortes précipitations  Vent > 20 kt
SIGMETs :   Divers  Orages  Givrage  Turbulence  Onde Orograph.  Cendres Volcan.






- Altitude de l'aérodrome : 302 ft
- Code IATA : MAH


LEMH - Menorca

DERNIER METAR :
  • 062230Z AUTO VRB02KT CAVOK 09/07 Q1026

METARs EXPIRÉS :
  • 062200Z AUTO 03003KT CAVOK 10/07 Q1026
  • 062130Z AUTO 08003KT CAVOK 13/09 Q1026
  • 062100Z AUTO 10005KT CAVOK 12/09 Q1026
  • 062030Z AUTO 11004KT CAVOK 13/09 Q1026
  • 062000Z 10004KT CAVOK 13/09 Q1026
  • 061930Z 10005KT CAVOK 13/08 Q1025

TAF TAF LEMH
Valide du 06 à 21h jusqu'au 07 à 21h UTC


062000Z 0621/0721 VRB03KT CAVOK TX20/0712Z TN07/0706Z
PROB30
TEMPO 0622/0706 VRB03KT 3000 BR BKN010
BECMG 0708/0710 10008KT



MET'MAP, la Météo Aéronautique d'un coup d'oeil ! - Copyright ORBIFLY Décembre 2007 - Disclaimer

ORBIFLY MET'MAP TEAM :

Programmation & Développement : Alexandra Zaïnal
Sur une idée originale de : Baudouin d'Aumeries
Assistance à la programmation : Marc-Olivier Méhu
Soutien technique & logistique : Manuel Goepfert

Contact : metmap@orbifly.com




SOURCES & CREDITS :

   NOAA